createdAt,value
2019-04-27T00:00:43.365Z,958.65
2019-04-27T00:01:47.002Z,958.68
2019-04-27T00:02:44.103Z,958.70
2019-04-27T00:03:44.738Z,958.73
2019-04-27T00:04:43.090Z,958.73
2019-04-27T00:05:43.447Z,958.77
2019-04-27T00:06:46.395Z,958.73
2019-04-27T00:07:43.908Z,958.72
2019-04-27T00:08:43.176Z,958.71
2019-04-27T00:09:50.062Z,958.71
2019-04-27T00:10:44.101Z,958.71
2019-04-27T00:11:45.423Z,958.65
2019-04-27T00:12:42.981Z,958.63
2019-04-27T00:13:43.958Z,958.64
2019-04-27T00:14:43.906Z,958.61
2019-04-27T00:15:43.940Z,958.58
2019-04-27T00:16:47.692Z,958.52
2019-04-27T00:17:48.621Z,958.60
2019-04-27T00:18:45.515Z,958.57
2019-04-27T00:19:43.968Z,958.55
2019-04-27T00:20:43.427Z,958.59
2019-04-27T00:21:43.085Z,958.58
2019-04-27T00:22:43.584Z,958.53
2019-04-27T00:23:42.984Z,958.55
2019-04-27T00:24:44.199Z,958.53
2019-04-27T00:25:43.812Z,958.63
2019-04-27T00:26:43.366Z,958.58
2019-04-27T00:27:43.640Z,958.51
2019-04-27T00:28:43.405Z,958.60
2019-04-27T00:29:43.260Z,958.49
2019-04-27T00:30:43.884Z,958.51
2019-04-27T00:31:43.499Z,958.49
2019-04-27T00:32:43.358Z,958.49
2019-04-27T00:33:43.449Z,958.45
2019-04-27T00:34:43.200Z,958.44
2019-04-27T00:35:43.824Z,958.44
2019-04-27T00:36:43.518Z,958.52
2019-04-27T00:37:44.797Z,958.52
2019-04-27T00:38:43.563Z,958.56
2019-04-27T00:39:43.325Z,958.51
2019-04-27T00:40:43.648Z,958.56
2019-04-27T00:41:43.049Z,958.53
2019-04-27T00:42:44.107Z,958.46
2019-04-27T00:43:42.807Z,958.44
2019-04-27T00:44:43.056Z,958.50
2019-04-27T00:45:43.672Z,958.52
2019-04-27T00:46:43.120Z,958.51
2019-04-27T00:47:54.643Z,958.47
2019-04-27T00:48:43.552Z,958.45
2019-04-27T00:49:44.360Z,958.48
2019-04-27T00:50:43.874Z,958.53
2019-04-27T00:51:43.278Z,958.50
2019-04-27T00:52:42.918Z,958.46
2019-04-27T00:53:43.530Z,958.47
2019-04-27T00:54:44.024Z,958.48
2019-04-27T00:55:43.499Z,958.47
2019-04-27T00:56:42.970Z,958.52
2019-04-27T00:57:43.532Z,958.46
2019-04-27T00:58:43.022Z,958.48
2019-04-27T00:59:43.166Z,958.38
2019-04-27T01:00:44.002Z,958.40
2019-04-27T01:01:43.593Z,958.37
2019-04-27T01:02:43.527Z,958.41
2019-04-27T01:03:43.069Z,958.36
2019-04-27T01:04:42.857Z,958.38
2019-04-27T01:05:43.058Z,958.34
2019-04-27T01:06:43.737Z,958.42
2019-04-27T01:07:43.475Z,958.42
2019-04-27T01:08:42.797Z,958.33
2019-04-27T01:09:42.776Z,958.44
2019-04-27T01:10:43.528Z,958.47
2019-04-27T01:11:43.439Z,958.46
2019-04-27T01:12:42.969Z,958.42
2019-04-27T01:13:43.464Z,958.49
2019-04-27T01:14:42.765Z,958.45
2019-04-27T01:15:43.009Z,958.48
2019-04-27T01:16:51.377Z,958.51
2019-04-27T01:17:42.248Z,958.46
2019-04-27T01:18:42.239Z,958.42
2019-04-27T01:19:42.218Z,958.37
2019-04-27T01:20:42.227Z,958.39
2019-04-27T01:21:42.229Z,958.39
2019-04-27T01:22:42.188Z,958.42
2019-04-27T01:23:42.191Z,958.40
2019-04-27T01:24:42.168Z,958.40
2019-04-27T01:25:42.169Z,958.42
2019-04-27T01:26:42.179Z,958.53
2019-04-27T01:27:42.155Z,958.50
2019-04-27T01:28:42.120Z,958.48
2019-04-27T01:29:42.137Z,958.51
2019-04-27T01:30:42.108Z,958.50
2019-04-27T01:31:42.131Z,958.48
2019-04-27T01:32:42.086Z,958.49
2019-04-27T01:33:42.070Z,958.49
2019-04-27T01:34:42.088Z,958.46
2019-04-27T01:35:42.050Z,958.53
2019-04-27T01:36:42.050Z,958.53
2019-04-27T01:37:42.020Z,958.58
2019-04-27T01:38:42.027Z,958.53
2019-04-27T01:39:42.026Z,958.56
2019-04-27T01:40:42.004Z,958.55
2019-04-27T01:41:41.999Z,958.55
2019-04-27T01:42:41.977Z,958.54
2019-04-27T01:43:41.978Z,958.54
2019-04-27T01:44:41.946Z,958.53
2019-04-27T01:45:41.967Z,958.58
2019-04-27T01:46:41.955Z,958.61
2019-04-27T01:47:41.959Z,958.61
2019-04-27T01:48:41.935Z,958.57
2019-04-27T01:49:42.006Z,958.65
2019-04-27T01:50:41.876Z,958.61
2019-04-27T01:51:41.887Z,958.61
2019-04-27T01:52:41.898Z,958.62
2019-04-27T01:53:41.856Z,958.59
2019-04-27T01:54:41.837Z,958.61
2019-04-27T01:55:41.827Z,958.63
2019-04-27T01:56:41.817Z,958.60
2019-04-27T01:57:41.823Z,958.67
2019-04-27T01:58:41.801Z,958.60
2019-04-27T01:59:41.837Z,958.54
2019-04-27T02:00:41.778Z,958.61
2019-04-27T02:01:41.829Z,958.53
2019-04-27T02:02:41.771Z,958.53
2019-04-27T02:03:41.765Z,958.58
2019-04-27T02:04:41.742Z,958.59
2019-04-27T02:05:41.751Z,958.57
2019-04-27T02:06:41.702Z,958.58
2019-04-27T02:07:41.691Z,958.57
2019-04-27T02:08:41.707Z,958.53
2019-04-27T02:09:41.676Z,958.55
2019-04-27T02:10:41.673Z,958.54
2019-04-27T02:11:41.702Z,958.56
2019-04-27T02:12:43.942Z,958.47
2019-04-27T02:13:41.718Z,958.58
2019-04-27T02:14:41.653Z,958.50
2019-04-27T02:15:41.667Z,958.49
2019-04-27T02:16:41.597Z,958.55
2019-04-27T02:17:41.575Z,958.55
2019-04-27T02:18:41.584Z,958.59
2019-04-27T02:19:41.558Z,958.52
2019-04-27T02:20:44.328Z,958.59
2019-04-27T02:21:41.539Z,958.52
2019-04-27T02:22:41.524Z,958.48
2019-04-27T02:23:41.536Z,958.51
2019-04-27T02:24:41.504Z,958.50
2019-04-27T02:25:41.497Z,958.47
2019-04-27T02:26:41.475Z,958.45
2019-04-27T02:27:41.477Z,958.48
2019-04-27T02:28:41.473Z,958.43
2019-04-27T02:29:41.472Z,958.39
2019-04-27T02:30:41.446Z,958.46
2019-04-27T02:31:41.432Z,958.41
2019-04-27T02:32:41.412Z,958.43
2019-04-27T02:33:41.425Z,958.40
2019-04-27T02:34:42.974Z,958.37
2019-04-27T02:35:42.004Z,958.36
2019-04-27T02:36:41.364Z,958.39
2019-04-27T02:37:41.354Z,958.31
2019-04-27T02:38:41.363Z,958.32
2019-04-27T02:39:41.351Z,958.35
2019-04-27T02:40:42.657Z,958.32
2019-04-27T02:41:41.322Z,958.26
2019-04-27T02:42:42.239Z,958.30
2019-04-27T02:43:41.313Z,958.31
2019-04-27T02:44:41.296Z,958.33
2019-04-27T02:45:41.334Z,958.26
2019-04-27T02:46:41.267Z,958.25
2019-04-27T02:47:41.249Z,958.25
2019-04-27T02:48:55.422Z,958.28
2019-04-27T02:49:42.254Z,958.32
2019-04-27T02:50:41.292Z,958.35
2019-04-27T02:51:42.886Z,958.29
2019-04-27T02:52:41.213Z,958.33
2019-04-27T02:53:41.190Z,958.24
2019-04-27T02:54:41.172Z,958.26
2019-04-27T02:55:41.194Z,958.24
2019-04-27T02:56:41.142Z,958.24
2019-04-27T02:57:41.133Z,958.24
2019-04-27T02:58:41.130Z,958.20
2019-04-27T02:59:41.112Z,958.26
2019-04-27T03:00:41.137Z,958.30
2019-04-27T03:01:46.489Z,958.21
2019-04-27T03:02:42.074Z,958.24
2019-04-27T03:03:41.348Z,958.26
2019-04-27T03:04:41.073Z,958.27
2019-04-27T03:05:42.609Z,958.26
2019-04-27T03:06:41.042Z,958.26
2019-04-27T03:07:42.858Z,958.31
2019-04-27T03:08:42.684Z,958.23
2019-04-27T03:09:41.005Z,958.29
2019-04-27T03:10:41.039Z,958.34
2019-04-27T03:11:40.983Z,958.25
2019-04-27T03:12:42.376Z,958.31
2019-04-27T03:13:40.957Z,958.21
2019-04-27T03:14:40.941Z,958.31
2019-04-27T03:15:40.979Z,958.33
2019-04-27T03:16:40.938Z,958.37
2019-04-27T03:17:40.927Z,958.32
2019-04-27T03:18:40.920Z,958.31
2019-04-27T03:19:40.890Z,958.33
2019-04-27T03:20:40.902Z,958.38
2019-04-27T03:21:40.889Z,958.39
2019-04-27T03:22:40.850Z,958.33
2019-04-27T03:23:41.329Z,958.31
2019-04-27T03:24:40.841Z,958.30
2019-04-27T03:25:40.818Z,958.37
2019-04-27T03:26:41.868Z,958.29
2019-04-27T03:27:40.820Z,958.31
2019-04-27T03:28:40.808Z,958.32
2019-04-27T03:29:40.823Z,958.22
2019-04-27T03:30:42.470Z,958.28
2019-04-27T03:31:42.578Z,958.27
2019-04-27T03:32:42.856Z,958.21
2019-04-27T03:33:42.790Z,958.28
2019-04-27T03:34:41.817Z,958.23
2019-04-27T03:35:43.178Z,958.28
2019-04-27T03:36:40.717Z,958.22
2019-04-27T03:37:40.686Z,958.28
2019-04-27T03:38:40.687Z,958.36
2019-04-27T03:39:40.668Z,958.33
2019-04-27T03:40:40.656Z,958.27
2019-04-27T03:41:41.255Z,958.30
2019-04-27T03:42:40.667Z,958.31
2019-04-27T03:43:40.626Z,958.26
2019-04-27T03:44:40.625Z,958.27
2019-04-27T03:45:40.617Z,958.32
2019-04-27T03:46:40.589Z,958.25
2019-04-27T03:47:41.055Z,958.32
2019-04-27T03:48:40.959Z,958.29
2019-04-27T03:49:41.539Z,958.29
2019-04-27T03:50:42.907Z,958.25
2019-04-27T03:51:40.546Z,958.26
2019-04-27T03:52:40.551Z,958.22
2019-04-27T03:53:40.516Z,958.26
2019-04-27T03:54:40.517Z,958.21
2019-04-27T03:55:42.862Z,958.23
2019-04-27T03:56:40.486Z,958.22
2019-04-27T03:57:40.524Z,958.16
2019-04-27T03:58:40.476Z,958.22
2019-04-27T03:59:40.666Z,958.29
2019-04-27T04:00:40.435Z,958.22
2019-04-27T04:01:40.447Z,958.24
2019-04-27T04:02:40.701Z,958.28
2019-04-27T04:03:40.455Z,958.23
2019-04-27T04:04:40.701Z,958.24
2019-04-27T04:05:40.407Z,958.22
2019-04-27T04:06:40.377Z,958.29
2019-04-27T04:07:40.514Z,958.22
2019-04-27T04:08:40.370Z,958.24
2019-04-27T04:09:40.516Z,958.27
2019-04-27T04:10:41.790Z,958.28
2019-04-27T04:11:40.330Z,958.27
2019-04-27T04:12:40.328Z,958.26
2019-04-27T04:13:40.317Z,958.31
2019-04-27T04:14:42.824Z,958.28
2019-04-27T04:15:40.289Z,958.25
2019-04-27T04:16:40.253Z,958.31
2019-04-27T04:17:40.486Z,958.24
2019-04-27T04:18:40.247Z,958.27
2019-04-27T04:19:51.214Z,958.29
2019-04-27T04:20:41.211Z,958.23
2019-04-27T04:21:40.364Z,958.32
2019-04-27T04:22:40.501Z,958.32
2019-04-27T04:23:40.351Z,958.25
2019-04-27T04:24:40.194Z,958.26
2019-04-27T04:25:40.999Z,958.28
2019-04-27T04:26:40.424Z,958.30
2019-04-27T04:27:42.640Z,958.30
2019-04-27T04:28:40.143Z,958.27
2019-04-27T04:29:40.131Z,958.30
2019-04-27T04:30:40.407Z,958.29
2019-04-27T04:31:40.640Z,958.36
2019-04-27T04:32:40.079Z,958.35
2019-04-27T04:33:40.458Z,958.34
2019-04-27T04:34:40.390Z,958.38
2019-04-27T04:35:40.154Z,958.32
2019-04-27T04:36:42.544Z,958.31
2019-04-27T04:37:40.032Z,958.28
2019-04-27T04:38:40.287Z,958.34
2019-04-27T04:39:40.608Z,958.36
2019-04-27T04:40:40.157Z,958.36
2019-04-27T04:41:43.162Z,958.36
2019-04-27T04:42:39.960Z,958.36
2019-04-27T04:43:40.112Z,958.36
2019-04-27T04:44:40.234Z,958.28
2019-04-27T04:45:39.931Z,958.33
2019-04-27T04:46:40.125Z,958.33
2019-04-27T04:47:40.686Z,958.30
2019-04-27T04:48:40.516Z,958.25
2019-04-27T04:49:39.985Z,958.34
2019-04-27T04:50:39.992Z,958.33
2019-04-27T04:51:40.281Z,958.35
2019-04-27T04:52:42.461Z,958.32
2019-04-27T04:53:40.556Z,958.33
2019-04-27T04:54:40.842Z,958.29
2019-04-27T04:55:39.846Z,958.33
2019-04-27T04:56:39.818Z,958.25
2019-04-27T04:57:40.118Z,958.35
2019-04-27T04:58:41.439Z,958.26
2019-04-27T04:59:39.798Z,958.31
2019-04-27T05:00:40.202Z,958.37
2019-04-27T05:01:40.011Z,958.36
2019-04-27T05:02:39.935Z,958.35
2019-04-27T05:03:39.739Z,958.45
2019-04-27T05:04:39.722Z,958.52
2019-04-27T05:05:41.393Z,958.43
2019-04-27T05:06:39.699Z,958.49
2019-04-27T05:07:39.689Z,958.45
2019-04-27T05:08:39.686Z,958.50
2019-04-27T05:09:39.681Z,958.51
2019-04-27T05:10:39.691Z,958.51
2019-04-27T05:11:39.714Z,958.51
2019-04-27T05:12:39.648Z,958.56
2019-04-27T05:13:39.617Z,958.50
2019-04-27T05:14:39.668Z,958.55
2019-04-27T05:15:39.635Z,958.58
2019-04-27T05:16:39.614Z,958.51
2019-04-27T05:17:39.963Z,958.48
2019-04-27T05:18:39.567Z,958.50
2019-04-27T05:19:39.555Z,958.51
2019-04-27T05:20:39.767Z,958.51
2019-04-27T05:21:39.536Z,958.51
2019-04-27T05:22:39.592Z,958.54
2019-04-27T05:23:39.554Z,958.56
2019-04-27T05:24:39.496Z,958.57
2019-04-27T05:25:39.506Z,958.52
2019-04-27T05:26:39.812Z,958.46
2019-04-27T05:27:40.755Z,958.51
2019-04-27T05:28:40.853Z,958.49
2019-04-27T05:29:39.466Z,958.48
2019-04-27T05:30:39.427Z,958.53
2019-04-27T05:31:39.445Z,958.53
2019-04-27T05:32:39.468Z,958.47
2019-04-27T05:33:39.408Z,958.45
2019-04-27T05:34:39.535Z,958.41
2019-04-27T05:35:41.140Z,958.43
2019-04-27T05:36:41.693Z,958.48
2019-04-27T05:37:40.359Z,958.46
2019-04-27T05:38:45.525Z,958.44
2019-04-27T05:39:40.374Z,958.41
2019-04-27T05:40:39.837Z,958.47
2019-04-27T05:41:41.493Z,958.43
2019-04-27T05:42:39.706Z,958.51
2019-04-27T05:43:39.327Z,958.47
2019-04-27T05:44:45.494Z,958.47
2019-04-27T05:45:40.290Z,958.57
2019-04-27T05:46:39.747Z,958.56
2019-04-27T05:47:39.336Z,958.48
2019-04-27T05:48:39.243Z,958.55
2019-04-27T05:49:41.121Z,958.56
2019-04-27T05:50:45.630Z,958.54
2019-04-27T05:51:41.980Z,958.59
2019-04-27T05:52:40.920Z,958.60
2019-04-27T05:53:39.623Z,958.68
2019-04-27T05:54:39.187Z,958.60
2019-04-27T05:55:39.332Z,958.63
2019-04-27T05:56:39.158Z,958.60
2019-04-27T05:57:39.151Z,958.58
2019-04-27T05:58:39.368Z,958.59
2019-04-27T05:59:39.813Z,958.56
2019-04-27T06:00:39.413Z,958.54
2019-04-27T06:01:39.220Z,958.64
2019-04-27T06:02:39.829Z,958.61
2019-04-27T06:03:39.671Z,958.62
2019-04-27T06:04:41.274Z,958.68
2019-04-27T06:05:39.239Z,958.67
2019-04-27T06:06:39.906Z,958.71
2019-04-27T06:07:39.631Z,958.70
2019-04-27T06:08:39.403Z,958.71
2019-04-27T06:09:39.196Z,958.61
2019-04-27T06:10:38.983Z,958.60
2019-04-27T06:11:39.960Z,958.61
2019-04-27T06:12:39.606Z,958.58
2019-04-27T06:13:39.303Z,958.52
2019-04-27T06:14:39.364Z,958.57
2019-04-27T06:15:39.015Z,958.61
2019-04-27T06:16:39.445Z,958.66
2019-04-27T06:17:38.942Z,958.64
2019-04-27T06:18:39.288Z,958.74
2019-04-27T06:19:39.126Z,958.72
2019-04-27T06:20:50.362Z,958.73
2019-04-27T06:21:40.276Z,958.76
2019-04-27T06:22:39.126Z,958.77
2019-04-27T06:23:39.132Z,958.75
2019-04-27T06:24:39.728Z,958.67
2019-04-27T06:25:39.375Z,958.74
2019-04-27T06:26:39.965Z,958.76
2019-04-27T06:27:39.674Z,958.70
2019-04-27T06:28:39.829Z,958.70
2019-04-27T06:29:39.179Z,958.62
2019-04-27T06:30:39.235Z,958.58
2019-04-27T06:31:39.688Z,958.61
2019-04-27T06:32:39.539Z,958.60
2019-04-27T06:33:39.223Z,958.58
2019-04-27T06:34:39.135Z,958.59
2019-04-27T06:35:39.939Z,958.51
2019-04-27T06:36:38.837Z,958.57
2019-04-27T06:37:38.977Z,958.59
2019-04-27T06:38:39.341Z,958.52
2019-04-27T06:39:38.765Z,958.53
2019-04-27T06:40:39.133Z,958.52
2019-04-27T06:41:40.068Z,958.56
2019-04-27T06:42:39.836Z,958.51
2019-04-27T06:43:40.438Z,958.50
2019-04-27T06:44:39.502Z,958.62
2019-04-27T06:45:38.871Z,958.58
2019-04-27T06:46:40.345Z,958.55
2019-04-27T06:47:39.714Z,958.57
2019-04-27T06:48:39.457Z,958.58
2019-04-27T06:49:39.570Z,958.55
2019-04-27T06:50:39.040Z,958.58
2019-04-27T06:51:40.057Z,958.57
2019-04-27T06:52:39.028Z,958.57
2019-04-27T06:53:39.483Z,958.56
2019-04-27T06:54:38.949Z,958.65
2019-04-27T06:55:39.185Z,958.57
2019-04-27T06:56:39.049Z,958.51
2019-04-27T06:57:39.411Z,958.55
2019-04-27T06:58:40.484Z,958.67
2019-04-27T06:59:40.026Z,958.56
2019-04-27T07:00:39.514Z,958.63
2019-04-27T07:01:39.048Z,958.54
2019-04-27T07:02:39.213Z,958.57
2019-04-27T07:03:39.561Z,958.63
2019-04-27T07:04:39.097Z,958.58
2019-04-27T07:05:38.873Z,958.57
2019-04-27T07:06:52.275Z,958.58
2019-04-27T07:07:39.603Z,958.61
2019-04-27T07:08:40.130Z,958.68
2019-04-27T07:09:39.276Z,958.66
2019-04-27T07:10:39.181Z,958.65
2019-04-27T07:11:39.466Z,958.75
2019-04-27T07:12:38.744Z,958.65
2019-04-27T07:13:39.065Z,958.68
2019-04-27T07:14:51.762Z,958.64
2019-04-27T07:15:39.279Z,958.61
2019-04-27T07:16:39.229Z,958.63
2019-04-27T07:17:38.853Z,958.67
2019-04-27T07:18:39.710Z,958.58
2019-04-27T07:19:39.701Z,958.59
2019-04-27T07:20:38.847Z,958.64
2019-04-27T07:21:40.020Z,958.65
2019-04-27T07:22:39.708Z,958.65
2019-04-27T07:23:38.855Z,958.59
2019-04-27T07:24:38.814Z,958.57
2019-04-27T07:25:38.904Z,958.51
2019-04-27T07:26:39.074Z,958.57
2019-04-27T07:27:39.476Z,958.58
2019-04-27T07:28:39.258Z,958.56
2019-04-27T07:29:40.311Z,958.54
2019-04-27T07:30:39.117Z,958.52
2019-04-27T07:31:40.016Z,958.55
2019-04-27T07:32:39.090Z,958.55
2019-04-27T07:33:39.566Z,958.52
2019-04-27T07:34:38.801Z,958.56
2019-04-27T07:35:39.270Z,958.56
2019-04-27T07:36:39.334Z,958.57
2019-04-27T07:37:39.305Z,958.61
2019-04-27T07:38:39.476Z,958.59
2019-04-27T07:39:39.112Z,958.52
2019-04-27T07:40:40.009Z,958.49
2019-04-27T07:41:38.741Z,958.61
2019-04-27T07:42:40.880Z,958.52
2019-04-27T07:43:39.645Z,958.57
2019-04-27T07:44:39.073Z,958.57
2019-04-27T07:45:39.502Z,958.57
2019-04-27T07:46:38.542Z,958.51
2019-04-27T07:47:39.358Z,958.56
2019-04-27T07:48:39.484Z,958.58
2019-04-27T07:49:39.079Z,958.54
2019-04-27T07:50:39.040Z,958.52
2019-04-27T07:51:39.300Z,958.56
2019-04-27T07:52:38.789Z,958.57
2019-04-27T07:53:38.985Z,958.54
2019-04-27T07:54:38.444Z,958.57
2019-04-27T07:55:39.456Z,958.56
2019-04-27T07:56:38.993Z,958.58
2019-04-27T07:57:37.797Z,958.57
2019-04-27T07:58:39.512Z,958.49
2019-04-27T07:59:41.657Z,958.50
2019-04-27T08:00:39.394Z,958.47
2019-04-27T08:01:39.335Z,958.48
2019-04-27T08:02:39.025Z,958.43
2019-04-27T08:03:39.018Z,958.42
2019-04-27T08:04:37.754Z,958.42
2019-04-27T08:05:39.140Z,958.50
2019-04-27T08:06:38.785Z,958.48
2019-04-27T08:07:39.130Z,958.43
2019-04-27T08:08:39.548Z,958.41
2019-04-27T08:09:39.618Z,958.41
2019-04-27T08:10:39.219Z,958.39
2019-04-27T08:11:39.199Z,958.44
2019-04-27T08:12:38.636Z,958.50
2019-04-27T08:13:38.995Z,958.47
2019-04-27T08:14:38.463Z,958.43
2019-04-27T08:15:39.475Z,958.49
2019-04-27T08:16:38.812Z,958.47
2019-04-27T08:17:37.584Z,958.47
2019-04-27T08:18:39.494Z,958.46
2019-04-27T08:19:39.307Z,958.47
2019-04-27T08:20:39.088Z,958.47
2019-04-27T08:21:44.357Z,958.47
2019-04-27T08:22:38.986Z,958.49
2019-04-27T08:23:39.319Z,958.42
2019-04-27T08:24:39.400Z,958.56
2019-04-27T08:25:39.177Z,958.40
2019-04-27T08:26:37.493Z,958.44
2019-04-27T08:27:39.304Z,958.44
2019-04-27T08:28:38.653Z,958.48
2019-04-27T08:29:39.309Z,958.53
2019-04-27T08:30:39.255Z,958.50
2019-04-27T08:31:38.701Z,958.51
2019-04-27T08:32:39.026Z,958.52
2019-04-27T08:33:38.911Z,958.43
2019-04-27T08:34:37.397Z,958.41
2019-04-27T08:35:38.874Z,958.41
2019-04-27T08:36:38.868Z,958.31
2019-04-27T08:37:38.634Z,958.37
2019-04-27T08:38:38.965Z,958.36
2019-04-27T08:39:37.336Z,958.37
2019-04-27T08:40:39.215Z,958.42
2019-04-27T08:41:37.346Z,958.38
2019-04-27T08:42:38.977Z,958.39
2019-04-27T08:43:39.075Z,958.25
2019-04-27T08:44:37.278Z,958.31
2019-04-27T08:45:39.046Z,958.24
2019-04-27T08:46:38.573Z,958.29
2019-04-27T08:47:39.111Z,958.26
2019-04-27T08:48:39.328Z,958.30
2019-04-27T08:49:39.252Z,958.28
2019-04-27T08:50:39.782Z,958.26
2019-04-27T08:51:37.217Z,958.20
2019-04-27T08:52:39.070Z,958.15
2019-04-27T08:53:37.188Z,958.21
2019-04-27T08:54:37.203Z,958.20
2019-04-27T08:55:37.145Z,958.15
2019-04-27T08:56:37.157Z,958.19
2019-04-27T08:57:38.716Z,958.17
2019-04-27T08:58:38.624Z,958.15
2019-04-27T08:59:37.106Z,958.22
2019-04-27T09:00:38.976Z,958.16
2019-04-27T09:01:37.113Z,958.14
2019-04-27T09:02:44.365Z,958.13
2019-04-27T09:03:39.489Z,958.15
2019-04-27T09:04:37.054Z,958.13
2019-04-27T09:05:38.861Z,958.14
2019-04-27T09:06:39.326Z,958.12
2019-04-27T09:07:37.040Z,958.12
2019-04-27T09:08:40.916Z,958.05
2019-04-27T09:09:37.016Z,958.03
2019-04-27T09:10:38.673Z,958.08
2019-04-27T09:11:36.977Z,958.09
2019-04-27T09:12:36.976Z,958.04
2019-04-27T09:13:36.946Z,958.03
2019-04-27T09:14:36.946Z,958.06
2019-04-27T09:15:36.925Z,958.07
2019-04-27T09:16:38.833Z,958.06
2019-04-27T09:17:36.916Z,958.05
2019-04-27T09:18:36.886Z,958.02
2019-04-27T09:19:36.884Z,958.00
2019-04-27T09:20:38.850Z,958.01
2019-04-27T09:21:36.878Z,958.03
2019-04-27T09:22:36.918Z,957.94
2019-04-27T09:23:38.659Z,957.95
2019-04-27T09:24:36.827Z,957.91
2019-04-27T09:25:36.874Z,957.96
2019-04-27T09:26:36.806Z,957.92
2019-04-27T09:27:36.793Z,957.88
2019-04-27T09:28:38.704Z,957.95
2019-04-27T09:29:36.779Z,957.91
2019-04-27T09:30:36.766Z,957.87
2019-04-27T09:31:36.765Z,957.89
2019-04-27T09:32:38.431Z,957.88
2019-04-27T09:33:36.759Z,957.86
2019-04-27T09:34:36.742Z,957.89
2019-04-27T09:35:36.696Z,957.88
2019-04-27T09:36:37.527Z,957.82
2019-04-27T09:37:36.725Z,957.87
2019-04-27T09:38:36.685Z,957.87
2019-04-27T09:39:36.673Z,957.86
2019-04-27T09:40:36.700Z,957.88
2019-04-27T09:41:36.677Z,957.85
2019-04-27T09:42:38.351Z,957.85
2019-04-27T09:43:36.827Z,957.80
2019-04-27T09:44:37.227Z,957.81
2019-04-27T09:45:37.162Z,957.84
2019-04-27T09:46:36.586Z,957.82
2019-04-27T09:47:39.022Z,957.82
2019-04-27T09:48:36.586Z,957.83
2019-04-27T09:49:38.335Z,957.82
2019-04-27T09:50:36.557Z,957.79
2019-04-27T09:51:36.546Z,957.76
2019-04-27T09:52:36.551Z,957.86
2019-04-27T09:53:36.610Z,957.79
2019-04-27T09:54:36.682Z,957.86
2019-04-27T09:55:36.970Z,957.82
2019-04-27T09:56:36.482Z,957.83
2019-04-27T09:57:36.558Z,957.82
2019-04-27T09:58:36.650Z,957.81
2019-04-27T09:59:37.742Z,957.82
2019-04-27T10:00:36.545Z,957.77
2019-04-27T10:01:36.418Z,957.78
2019-04-27T10:02:36.677Z,957.71
2019-04-27T10:03:36.419Z,957.73
2019-04-27T10:04:36.377Z,957.71
2019-04-27T10:05:36.822Z,957.71
2019-04-27T10:06:36.401Z,957.72
2019-04-27T10:07:36.365Z,957.71
2019-04-27T10:08:36.738Z,957.66
2019-04-27T10:09:36.804Z,957.72
2019-04-27T10:10:37.146Z,957.64
2019-04-27T10:11:36.321Z,957.65
2019-04-27T10:12:36.862Z,957.66
2019-04-27T10:13:36.546Z,957.59
2019-04-27T10:14:36.291Z,957.55
2019-04-27T10:15:36.276Z,957.55
2019-04-27T10:16:36.659Z,957.52
2019-04-27T10:17:36.243Z,957.45
2019-04-27T10:18:36.782Z,957.48
2019-04-27T10:19:36.640Z,957.50
2019-04-27T10:20:40.681Z,957.56
2019-04-27T10:21:36.618Z,957.52
2019-04-27T10:22:41.290Z,957.39
2019-04-27T10:23:38.430Z,957.56
2019-04-27T10:24:36.159Z,957.50
2019-04-27T10:25:37.500Z,957.54
2019-04-27T10:26:36.280Z,957.42
2019-04-27T10:27:36.119Z,957.45
2019-04-27T10:28:37.295Z,957.45
2019-04-27T10:29:36.129Z,957.40
2019-04-27T10:30:36.106Z,957.39
2019-04-27T10:31:36.110Z,957.41
2019-04-27T10:32:36.233Z,957.44
2019-04-27T10:33:36.079Z,957.33
2019-04-27T10:34:36.062Z,957.37
2019-04-27T10:35:36.436Z,957.32
2019-04-27T10:36:36.832Z,957.31
2019-04-27T10:37:36.021Z,957.31
2019-04-27T10:38:36.160Z,957.26
2019-04-27T10:39:36.211Z,957.23
2019-04-27T10:40:35.982Z,957.31
2019-04-27T10:41:36.921Z,957.22
2019-04-27T10:42:35.988Z,957.25
2019-04-27T10:43:35.979Z,957.18
2019-04-27T10:44:35.955Z,957.25
2019-04-27T10:45:37.841Z,957.28
2019-04-27T10:46:35.921Z,957.32
2019-04-27T10:47:36.088Z,957.25
2019-04-27T10:48:36.734Z,957.25
2019-04-27T10:49:35.911Z,957.18
2019-04-27T10:50:36.596Z,957.22
2019-04-27T10:51:36.425Z,957.16
2019-04-27T10:52:35.872Z,957.17
2019-04-27T10:53:38.732Z,957.22
2019-04-27T10:54:35.841Z,957.21
2019-04-27T10:55:36.295Z,957.18
2019-04-27T10:56:36.207Z,957.18
2019-04-27T10:57:35.821Z,957.12
2019-04-27T10:58:35.801Z,957.20
2019-04-27T10:59:36.161Z,957.23
2019-04-27T11:00:36.801Z,957.21
2019-04-27T11:01:35.997Z,957.13
2019-04-27T11:02:35.736Z,957.15
2019-04-27T11:03:35.745Z,957.16
2019-04-27T11:04:36.043Z,957.22
2019-04-27T11:05:35.931Z,957.13
2019-04-27T11:06:35.691Z,957.17
2019-04-27T11:07:36.310Z,957.23
2019-04-27T11:08:35.674Z,957.15
2019-04-27T11:09:35.701Z,957.17
2019-04-27T11:10:36.116Z,957.20
2019-04-27T11:11:36.307Z,957.13
2019-04-27T11:12:35.633Z,957.11
2019-04-27T11:13:35.925Z,957.09
2019-04-27T11:14:35.662Z,957.13
2019-04-27T11:15:37.122Z,957.18
2019-04-27T11:16:37.762Z,957.11
2019-04-27T11:17:37.083Z,957.06
2019-04-27T11:18:36.051Z,957.03
2019-04-27T11:19:35.808Z,957.10
2019-04-27T11:20:36.289Z,956.99
2019-04-27T11:21:35.658Z,957.06
2019-04-27T11:22:36.312Z,957.08
2019-04-27T11:23:35.955Z,957.04
2019-04-27T11:24:35.526Z,956.96
2019-04-27T11:25:36.513Z,956.99
2019-04-27T11:26:36.369Z,957.02
2019-04-27T11:27:35.463Z,957.07
2019-04-27T11:28:35.956Z,956.98
2019-04-27T11:29:36.089Z,956.99
2019-04-27T11:30:35.458Z,956.95
2019-04-27T11:31:36.378Z,956.90
2019-04-27T11:32:35.404Z,956.97
2019-04-27T11:33:36.345Z,956.99
2019-04-27T11:34:38.139Z,956.99
2019-04-27T11:35:35.818Z,956.99
2019-04-27T11:36:35.636Z,956.84
2019-04-27T11:37:37.208Z,956.88
2019-04-27T11:38:36.569Z,956.93
2019-04-27T11:39:35.962Z,956.93
2019-04-27T11:40:36.685Z,956.96
2019-04-27T11:41:35.307Z,956.94
2019-04-27T11:42:35.294Z,956.80
2019-04-27T11:43:36.092Z,956.79
2019-04-27T11:44:35.941Z,956.89
2019-04-27T11:45:36.750Z,956.93
2019-04-27T11:46:35.275Z,956.78
2019-04-27T11:47:36.467Z,956.83
2019-04-27T11:48:36.164Z,956.91
2019-04-27T11:49:35.967Z,956.94
2019-04-27T11:50:35.823Z,956.82
2019-04-27T11:51:36.598Z,957.03
2019-04-27T11:52:35.184Z,956.95
2019-04-27T11:53:35.971Z,956.86
2019-04-27T11:54:35.630Z,956.96
2019-04-27T11:55:35.186Z,956.89
2019-04-27T11:56:36.198Z,957.08
2019-04-27T11:57:35.773Z,956.93
2019-04-27T11:58:35.179Z,956.92
2019-04-27T11:59:35.108Z,956.99
2019-04-27T12:00:36.457Z,956.90
2019-04-27T12:01:35.823Z,956.90
2019-04-27T12:02:35.783Z,956.96
2019-04-27T12:03:35.054Z,956.91
2019-04-27T12:04:36.415Z,956.91
2019-04-27T12:05:36.272Z,956.98
2019-04-27T12:06:35.843Z,956.94
2019-04-27T12:07:35.004Z,957.06
2019-04-27T12:08:36.570Z,956.91
2019-04-27T12:09:34.997Z,956.95
2019-04-27T12:10:36.335Z,956.97
2019-04-27T12:11:36.290Z,956.96
2019-04-27T12:12:36.321Z,956.93
2019-04-27T12:13:35.922Z,956.88
2019-04-27T12:14:34.936Z,956.93
2019-04-27T12:15:36.208Z,956.95
2019-04-27T12:16:36.049Z,956.88
2019-04-27T12:17:35.889Z,956.89
2019-04-27T12:18:34.887Z,956.92
2019-04-27T12:19:35.619Z,956.86
2019-04-27T12:20:35.884Z,956.94
2019-04-27T12:21:36.158Z,956.87
2019-04-27T12:22:34.877Z,956.90
2019-04-27T12:23:39.452Z,956.88
2019-04-27T12:24:35.824Z,956.90
2019-04-27T12:25:36.987Z,956.94
2019-04-27T12:26:36.285Z,957.03
2019-04-27T12:27:35.854Z,956.98
2019-04-27T12:28:35.575Z,957.00